Lucky Trader — HOGJ — position and weather

sailwx.info

Track history (hours):
 
Tides and Currents Weather Stations Pressure Air Temp Water Temp Dewpoint Dewpoint Depression Visibility Wind Speed Wind Dir Waves Ship Positions

Lucky Trader

Last reported at 2017-Apr-28 16:42 UTC. Time now 2017-Apr-29 11:23 UTC.
Position N 40°58' E 028°55'.

Length 154 m; draft 5.8 m.

Type: Cargo ship. MMSI: 374533000.

Date/timePositionNaut miles runAvg speedWind from/ knotsBaromVisibWave heightAir tempDewpointWater temp
2017-Apr-28 16:42N 40°58' E 028°55'0 0.0
2017-Apr-28 11:24N 40°58' E 028°56'  
2017-Apr-26 05:34N 40°58' E 028°56'0 1.8
2017-Apr-26 05:23N 40°57' E 028°56'3 6.4
2017-Apr-26 04:53N 40°54' E 028°54'4 9.8
2017-Apr-26 04:29N 40°52' E 028°51'156 9.2
2017-Apr-25 11:38N 39°49' E 025°44'0 0.9
2017-Apr-25 11:31N 39°49' E 025°44'12211.6
2017-Apr-25 01:02N 37°58' E 024°39'112.0
2017-Apr-25 00:59N 37°58' E 024°38'612.1
2017-Apr-25 00:28N 37°52' E 024°35'512.1
2017-Apr-25 00:00N 37°47' E 024°32'612.2
2017-Apr-24 23:31N 37°41' E 024°29'1612.1
2017-Apr-24 22:12N 37°27' E 024°20'312.1
2017-Apr-24 21:56N 37°25' E 024°18'1312.3
2017-Apr-24 20:52N 37°14' E 024°08'44411.8
2017-Apr-23 07:14N 36°21' E 014°57'312.8
2017-Apr-23 07:00N 36°21' E 014°54'712.8
2017-Apr-23 06:27N 36°21' E 014°45'612.7
2017-Apr-23 06:00N 36°21' E 014°38'612.7
2017-Apr-23 05:31N 36°23' E 014°30'712.8
2017-Apr-23 05:00N 36°25' E 014°23'612.7
2017-Apr-23 04:30N 36°27' E 014°15'612.8
2017-Apr-23 04:00N 36°29' E 014°08'712.8
2017-Apr-23 03:29N 36°31' E 013°60'812.6
2017-Apr-23 02:50N 36°34' E 013°50'  
Track history (hours):
 
Tides and Currents Weather Stations Pressure Air Temp Water Temp Dewpoint Dewpoint Depression Visibility Wind Speed Wind Dir Waves Ship Positions

Lucky Trader

Last reported at 2017-Apr-28 16:42 UTC. Time now 2017-Apr-29 11:23 UTC.
Position N 40°58' E 028°55'.

Length 154 m; draft 5.8 m.

Type: Cargo ship. MMSI: 374533000.

Date/timePositionNaut miles runAvg speedWind from/ knotsBaromVisibWave heightAir tempDewpointWater temp
2017-Apr-28 16:42N 40°58' E 028°55'0 0.0
2017-Apr-28 11:24N 40°58' E 028°56'  
2017-Apr-26 05:34N 40°58' E 028°56'0 1.8
2017-Apr-26 05:23N 40°57' E 028°56'3 6.4
2017-Apr-26 04:53N 40°54' E 028°54'4 9.8
2017-Apr-26 04:29N 40°52' E 028°51'156 9.2
2017-Apr-25 11:38N 39°49' E 025°44'0 0.9
2017-Apr-25 11:31N 39°49' E 025°44'12211.6
2017-Apr-25 01:02N 37°58' E 024°39'112.0
2017-Apr-25 00:59N 37°58' E 024°38'612.1
2017-Apr-25 00:28N 37°52' E 024°35'512.1
2017-Apr-25 00:00N 37°47' E 024°32'612.2
2017-Apr-24 23:31N 37°41' E 024°29'1612.1
2017-Apr-24 22:12N 37°27' E 024°20'312.1
2017-Apr-24 21:56N 37°25' E 024°18'1312.3
2017-Apr-24 20:52N 37°14' E 024°08'44411.8
2017-Apr-23 07:14N 36°21' E 014°57'312.8
2017-Apr-23 07:00N 36°21' E 014°54'712.8
2017-Apr-23 06:27N 36°21' E 014°45'612.7
2017-Apr-23 06:00N 36°21' E 014°38'612.7
2017-Apr-23 05:31N 36°23' E 014°30'712.8
2017-Apr-23 05:00N 36°25' E 014°23'612.7
2017-Apr-23 04:30N 36°27' E 014°15'612.8
2017-Apr-23 04:00N 36°29' E 014°08'712.8
2017-Apr-23 03:29N 36°31' E 013°60'812.6
2017-Apr-23 02:50N 36°34' E 013°50'  

Dump ship's entire track history